createdAt,value
2022-10-12T00:01:10.027Z,10.70
2022-10-12T00:03:38.756Z,10.77
2022-10-12T00:06:09.317Z,10.95
2022-10-12T00:08:38.987Z,10.90
2022-10-12T00:11:09.122Z,10.35
2022-10-12T00:13:36.684Z,10.80
2022-10-12T00:16:07.919Z,10.30
2022-10-12T00:18:35.853Z,11.82
2022-10-12T00:21:14.161Z,10.77
2022-10-12T00:23:44.059Z,11.93
2022-10-12T00:26:23.401Z,12.15
2022-10-12T00:29:00.283Z,11.60
2022-10-12T00:31:30.393Z,12.27
2022-10-12T00:34:02.222Z,10.98
2022-10-12T00:36:34.532Z,10.57
2022-10-12T00:39:05.407Z,11.23
2022-10-12T00:41:41.210Z,10.57
2022-10-12T00:44:34.915Z,10.60
2022-10-12T00:47:17.620Z,10.38
2022-10-12T00:49:57.605Z,9.63
2022-10-12T00:52:34.629Z,9.82
2022-10-12T00:55:03.086Z,11.73
2022-10-12T00:57:30.385Z,12.23
2022-10-12T01:00:04.326Z,12.45
2022-10-12T01:02:34.373Z,14.02
2022-10-12T01:05:03.017Z,12.10
2022-10-12T01:09:57.936Z,12.48
2022-10-12T01:12:27.093Z,12.27
2022-10-12T01:14:55.613Z,12.50
2022-10-12T01:20:40.295Z,11.85
2022-10-12T01:23:45.194Z,12.10
2022-10-12T01:27:03.183Z,12.18
2022-10-12T01:30:07.308Z,12.40
2022-10-12T01:32:39.388Z,11.80
2022-10-12T01:36:04.564Z,10.98
2022-10-12T01:39:05.209Z,11.40
2022-10-12T01:41:37.023Z,10.80
2022-10-12T01:44:04.822Z,11.68
2022-10-12T01:46:32.040Z,11.02
2022-10-12T01:49:02.176Z,11.18
2022-10-12T01:52:07.671Z,11.50
2022-10-12T01:55:10.159Z,10.77
2022-10-12T01:58:35.301Z,12.20
2022-10-12T02:01:17.615Z,10.70
2022-10-12T02:04:10.855Z,11.25
2022-10-12T02:06:47.321Z,13.02
2022-10-12T02:09:25.795Z,11.30
2022-10-12T02:11:57.628Z,11.82
2022-10-12T02:14:35.208Z,12.90
2022-10-12T02:17:09.715Z,12.50
2022-10-12T02:19:44.890Z,11.90
2022-10-12T02:22:15.072Z,11.63
2022-10-12T02:24:47.560Z,12.82
2022-10-12T02:27:18.324Z,12.25
2022-10-12T02:29:48.021Z,12.45
2022-10-12T02:32:34.299Z,11.55
2022-10-12T02:35:09.293Z,12.52
2022-10-12T02:37:39.578Z,11.40
2022-10-12T02:40:14.912Z,11.13
2022-10-12T02:43:11.070Z,12.13
2022-10-12T02:45:43.989Z,11.73
2022-10-12T02:48:17.736Z,11.40
2022-10-12T02:50:48.744Z,12.23
2022-10-12T02:53:17.339Z,12.15
2022-10-12T02:58:26.709Z,13.23
2022-10-12T03:00:54.015Z,12.60
2022-10-12T03:03:21.451Z,14.13
2022-10-12T03:05:48.755Z,16.52
2022-10-12T03:08:16.003Z,16.98
2022-10-12T03:10:43.426Z,16.80
2022-10-12T03:13:10.773Z,16.13
2022-10-12T03:15:38.243Z,16.23
2022-10-12T03:18:05.626Z,16.47
2022-10-12T03:20:33.020Z,16.67
2022-10-12T03:23:00.342Z,15.50
2022-10-12T03:25:27.553Z,16.00
2022-10-12T03:27:54.838Z,14.95
2022-10-12T03:30:22.257Z,15.57
2022-10-12T03:32:49.597Z,15.93
2022-10-12T03:35:17.726Z,15.75
2022-10-12T03:37:45.061Z,15.20
2022-10-12T03:40:13.624Z,15.07
2022-10-12T03:42:41.056Z,15.10
2022-10-12T03:45:09.381Z,15.53
2022-10-12T03:47:38.221Z,15.05
2022-10-12T03:50:06.406Z,16.33
2022-10-12T03:52:33.763Z,17.30
2022-10-12T03:55:01.038Z,16.58
2022-10-12T03:57:28.428Z,17.33
2022-10-12T03:59:55.726Z,16.83
2022-10-12T04:02:23.065Z,16.88
2022-10-12T04:04:50.416Z,17.15
2022-10-12T04:07:17.789Z,16.27
2022-10-12T04:09:45.192Z,17.08
2022-10-12T04:12:12.641Z,16.92
2022-10-12T04:14:40.476Z,16.38
2022-10-12T04:17:07.953Z,17.13
2022-10-12T04:19:35.388Z,17.10
2022-10-12T04:22:02.668Z,16.38
2022-10-12T04:24:30.096Z,16.50
2022-10-12T04:26:57.427Z,16.90
2022-10-12T04:29:24.639Z,16.10
2022-10-12T04:31:52.057Z,16.80
2022-10-12T04:34:20.242Z,15.35
2022-10-12T04:36:48.083Z,16.15
2022-10-12T04:39:17.419Z,16.00
2022-10-12T04:41:44.724Z,15.40
2022-10-12T04:44:12.015Z,14.40
2022-10-12T04:46:39.240Z,13.80
2022-10-12T04:49:06.595Z,13.27
2022-10-12T04:51:33.931Z,13.93
2022-10-12T04:54:01.160Z,13.48
2022-10-12T04:56:28.465Z,13.60
2022-10-12T04:58:55.853Z,13.65
2022-10-12T05:01:23.309Z,13.02
2022-10-12T05:03:50.634Z,12.98
2022-10-12T05:06:17.942Z,14.02
2022-10-12T05:08:45.218Z,14.13
2022-10-12T05:11:12.606Z,13.20
2022-10-12T05:13:39.889Z,14.25
2022-10-12T05:16:07.461Z,14.82
2022-10-12T05:18:34.801Z,16.92
2022-10-12T05:21:02.117Z,18.05
2022-10-12T05:23:29.545Z,17.88
2022-10-12T05:25:57.132Z,17.70
2022-10-12T05:28:24.863Z,17.60
2022-10-12T05:30:53.442Z,16.98
2022-10-12T05:33:20.738Z,16.70
2022-10-12T05:35:53.353Z,17.30
2022-10-12T05:38:23.838Z,17.55
2022-10-12T05:40:51.104Z,16.20
2022-10-12T05:43:18.479Z,16.05
2022-10-12T05:45:45.762Z,15.85
2022-10-12T05:48:13.025Z,14.93
2022-10-12T05:50:40.374Z,14.57
2022-10-12T05:53:07.592Z,15.00
2022-10-12T05:55:34.902Z,14.77
2022-10-12T05:58:02.219Z,14.95
2022-10-12T06:00:29.571Z,14.87
2022-10-12T06:02:56.955Z,14.10
2022-10-12T06:05:25.179Z,15.43
2022-10-12T06:07:52.448Z,14.70
2022-10-12T06:10:19.903Z,13.50
2022-10-12T06:12:47.358Z,15.70
2022-10-12T06:15:14.663Z,14.60
2022-10-12T06:17:41.910Z,15.43
2022-10-12T06:20:10.331Z,14.82
2022-10-12T06:22:37.728Z,15.85
2022-10-12T06:25:05.933Z,15.95
2022-10-12T06:27:33.365Z,15.35
2022-10-12T06:30:00.695Z,15.10
2022-10-12T06:32:27.971Z,15.55
2022-10-12T06:34:55.592Z,15.65
2022-10-12T06:37:48.107Z,13.48
2022-10-12T06:40:11.005Z,13.90
2022-10-12T06:42:38.476Z,14.27
2022-10-12T06:45:06.651Z,13.60
2022-10-12T06:47:34.572Z,13.55
2022-10-12T06:50:01.892Z,13.00
2022-10-12T06:52:29.429Z,13.60
2022-10-12T06:54:56.816Z,14.00
2022-10-12T06:57:24.439Z,13.80
2022-10-12T06:59:51.790Z,12.88
2022-10-12T07:02:19.088Z,12.40
2022-10-12T07:04:53.886Z,13.35
2022-10-12T07:07:21.161Z,12.60
2022-10-12T07:09:49.010Z,12.50
2022-10-12T07:12:16.295Z,12.13
2022-10-12T07:14:43.614Z,12.02
2022-10-12T07:17:10.886Z,11.23
2022-10-12T07:19:38.299Z,11.57
2022-10-12T07:22:05.756Z,11.50
2022-10-12T07:24:36.545Z,11.27
2022-10-12T07:27:07.958Z,11.52
2022-10-12T07:29:38.076Z,11.00
2022-10-12T07:32:12.438Z,11.57
2022-10-12T07:34:39.763Z,12.20
2022-10-12T07:37:07.221Z,12.40
2022-10-12T07:39:34.631Z,12.02
2022-10-12T07:42:09.271Z,10.90
2022-10-12T07:44:38.921Z,10.40
2022-10-12T07:47:06.283Z,10.68
2022-10-12T07:49:33.623Z,9.90
2022-10-12T07:52:00.856Z,10.32
2022-10-12T07:54:30.308Z,8.73
2022-10-12T07:56:57.636Z,8.77
2022-10-12T07:59:25.142Z,8.27
2022-10-12T08:01:53.153Z,7.13
2022-10-12T08:04:20.575Z,6.43
2022-10-12T08:06:47.841Z,7.68
2022-10-12T08:09:15.346Z,6.32
2022-10-12T08:11:43.078Z,6.70
2022-10-12T08:14:16.494Z,7.50
2022-10-12T08:16:45.322Z,5.75
2022-10-12T08:19:13.311Z,6.82
2022-10-12T08:21:42.620Z,9.02
2022-10-12T08:24:11.687Z,8.68
2022-10-12T08:26:39.703Z,9.05
2022-10-12T08:29:08.436Z,9.15
2022-10-12T08:31:37.652Z,8.55
2022-10-12T08:34:05.553Z,7.50
2022-10-12T08:36:33.274Z,7.30
2022-10-12T08:39:00.621Z,6.97
2022-10-12T08:42:00.706Z,7.25
2022-10-12T08:45:02.938Z,7.72
2022-10-12T08:47:51.649Z,7.60
2022-10-12T08:50:34.106Z,7.55
2022-10-12T08:53:30.340Z,7.10
2022-10-12T08:55:59.170Z,7.03
2022-10-12T08:58:39.119Z,7.70
2022-10-12T09:01:26.143Z,7.10
2022-10-12T09:04:21.520Z,6.90
2022-10-12T09:07:10.842Z,7.40
2022-10-12T09:09:57.161Z,6.85
2022-10-12T09:12:37.644Z,8.23
2022-10-12T09:15:18.021Z,7.22
2022-10-12T09:17:58.254Z,7.93
2022-10-12T09:20:59.196Z,8.10
2022-10-12T09:23:32.004Z,7.00
2022-10-12T09:26:16.741Z,7.82
2022-10-12T09:28:58.427Z,7.43
2022-10-12T09:32:02.766Z,6.90
2022-10-12T09:34:30.509Z,7.90
2022-10-12T09:36:58.215Z,8.00
2022-10-12T09:39:35.577Z,8.40
2022-10-12T09:42:03.319Z,7.38
2022-10-12T09:44:52.780Z,7.43
2022-10-12T09:47:31.549Z,8.05
2022-10-12T09:50:07.271Z,8.73
2022-10-12T09:52:44.804Z,8.52
2022-10-12T09:58:02.854Z,7.30
2022-10-12T10:00:34.565Z,7.63
2022-10-12T10:03:03.151Z,8.55
2022-10-12T10:08:23.611Z,8.05
2022-10-12T10:11:01.700Z,7.88
2022-10-12T10:13:32.558Z,7.13
2022-10-12T10:16:11.500Z,8.07
2022-10-12T10:18:49.436Z,8.13
2022-10-12T10:21:43.340Z,9.15
2022-10-12T10:24:27.556Z,8.15
2022-10-12T10:27:00.277Z,7.55
2022-10-12T10:29:41.824Z,7.50
2022-10-12T10:32:27.018Z,8.70
2022-10-12T10:35:21.451Z,8.63
2022-10-12T10:37:55.778Z,7.72
2022-10-12T10:40:29.223Z,7.90
2022-10-12T10:43:18.406Z,8.77
2022-10-12T10:45:54.885Z,7.47
2022-10-12T10:48:56.592Z,8.88
2022-10-12T10:52:00.217Z,8.35
2022-10-12T10:54:41.093Z,8.45
2022-10-12T10:57:19.248Z,7.88
2022-10-12T11:00:09.289Z,7.78
2022-10-12T11:03:24.148Z,7.82
2022-10-12T11:06:35.331Z,8.65
2022-10-12T11:09:13.180Z,8.20
2022-10-12T11:11:44.406Z,9.30
2022-10-12T11:14:19.692Z,8.60
2022-10-12T11:17:08.553Z,8.02
2022-10-12T11:19:49.467Z,8.23
2022-10-12T11:22:29.238Z,8.38
2022-10-12T11:25:26.203Z,8.75
2022-10-12T11:46:38.416Z,8.60
2022-10-12T11:49:28.212Z,8.90
2022-10-12T11:52:01.324Z,9.38
2022-10-12T11:54:52.936Z,9.25
2022-10-12T11:57:37.390Z,9.55
2022-10-12T12:00:24.079Z,9.70
2022-10-12T12:03:15.450Z,9.20
2022-10-12T12:05:44.232Z,9.82
2022-10-12T12:08:41.737Z,9.63
2022-10-12T12:11:30.809Z,9.05
2022-10-12T12:14:28.764Z,10.02
2022-10-12T12:17:21.978Z,10.00
2022-10-12T12:20:46.751Z,9.48
2022-10-12T12:23:40.969Z,10.43
2022-10-12T12:26:16.113Z,10.10
2022-10-12T12:28:51.594Z,10.60
2022-10-12T12:31:24.872Z,11.30
2022-10-12T12:34:14.727Z,11.43
2022-10-12T12:36:52.258Z,11.27
2022-10-12T12:40:10.660Z,11.15
2022-10-12T12:42:38.190Z,9.70
2022-10-12T12:45:33.688Z,10.68
2022-10-12T12:48:11.678Z,10.88
2022-10-12T12:50:41.748Z,10.48
2022-10-12T12:53:22.083Z,10.15
2022-10-12T12:56:12.985Z,11.10
2022-10-12T12:58:55.581Z,11.85
2022-10-12T13:01:22.852Z,10.88
2022-10-12T13:04:23.103Z,11.82
2022-10-12T13:07:17.595Z,11.25
2022-10-12T13:10:08.243Z,10.68
2022-10-12T13:13:09.426Z,11.52
2022-10-12T13:16:00.569Z,11.85
2022-10-12T13:19:00.760Z,11.05
2022-10-12T13:21:39.157Z,11.90
2022-10-12T13:26:54.403Z,11.23
2022-10-12T13:29:59.448Z,12.82
2022-10-12T13:33:07.791Z,11.95
2022-10-12T13:36:00.115Z,11.40
2022-10-12T13:38:30.270Z,12.10
2022-10-12T13:41:11.468Z,13.85
2022-10-12T13:44:06.732Z,12.48
2022-10-12T13:46:44.712Z,12.77
2022-10-12T13:49:24.744Z,11.73
2022-10-12T13:52:16.315Z,12.55
2022-10-12T13:54:47.796Z,13.70
2022-10-12T13:57:33.164Z,12.85
2022-10-12T14:00:16.720Z,13.30
2022-10-12T14:03:05.815Z,14.20
2022-10-12T14:05:34.212Z,14.05
2022-10-12T14:08:26.233Z,12.70
2022-10-12T14:10:57.797Z,14.00
2022-10-12T14:13:31.956Z,13.65
2022-10-12T14:16:05.270Z,13.68
2022-10-12T14:18:45.000Z,15.68
2022-10-12T14:21:25.914Z,15.82
2022-10-12T14:24:06.968Z,14.80
2022-10-12T14:26:42.741Z,16.25
2022-10-12T14:29:45.596Z,17.25
2022-10-12T14:32:13.726Z,16.52
2022-10-12T14:35:03.976Z,15.77
2022-10-12T14:37:31.828Z,16.52
2022-10-12T14:40:28.628Z,15.60
2022-10-12T14:43:13.826Z,16.65
2022-10-12T14:45:41.416Z,17.77
2022-10-12T14:48:20.874Z,16.05
2022-10-12T14:50:48.369Z,17.45
2022-10-12T14:53:16.610Z,17.38
2022-10-12T14:55:44.657Z,17.20
2022-10-12T14:58:19.728Z,17.02
2022-10-12T15:00:47.298Z,18.42
2022-10-12T15:03:18.237Z,19.20
2022-10-12T15:05:45.636Z,18.08
2022-10-12T15:08:12.997Z,18.38
2022-10-12T15:10:40.426Z,17.73
2022-10-12T15:13:07.736Z,18.92
2022-10-12T15:15:47.142Z,18.25
2022-10-12T15:18:14.910Z,19.52
2022-10-12T15:20:48.287Z,18.05
2022-10-12T15:23:16.845Z,17.58
2022-10-12T15:25:55.098Z,16.85
2022-10-12T15:28:29.959Z,15.95
2022-10-12T15:31:17.535Z,18.13
2022-10-12T15:33:46.796Z,16.42
2022-10-12T15:36:14.118Z,15.23
2022-10-12T15:38:41.412Z,15.43
2022-10-12T15:41:21.091Z,16.20
2022-10-12T15:43:48.473Z,16.77
2022-10-12T15:46:16.652Z,16.13
2022-10-12T15:48:46.369Z,14.95
2022-10-12T15:51:22.834Z,16.83
2022-10-12T15:53:53.484Z,15.60
2022-10-12T15:56:22.058Z,16.50
2022-10-12T15:58:49.564Z,16.30
2022-10-12T16:01:20.277Z,17.38
2022-10-12T16:03:49.318Z,15.77
2022-10-12T16:06:17.214Z,18.70
2022-10-12T16:08:44.588Z,16.35
2022-10-12T16:11:16.103Z,16.90
2022-10-12T16:13:49.998Z,17.30
2022-10-12T16:16:21.371Z,17.58
2022-10-12T16:18:48.954Z,18.15
2022-10-12T16:21:16.767Z,19.75
2022-10-12T16:23:44.210Z,21.13
2022-10-12T16:26:17.584Z,22.83
2022-10-12T16:28:45.452Z,21.83
2022-10-12T16:31:17.922Z,22.13
2022-10-12T16:33:45.990Z,23.52
2022-10-12T16:36:15.937Z,23.13
2022-10-12T16:38:44.523Z,22.20
2022-10-12T16:41:17.314Z,22.95
2022-10-12T16:43:45.089Z,23.30
2022-10-12T16:46:12.563Z,22.35
2022-10-12T16:48:39.990Z,31.60
2022-10-12T16:51:13.368Z,23.40
2022-10-12T16:53:42.491Z,24.05
2022-10-12T16:56:10.086Z,22.98
2022-10-12T16:58:37.622Z,23.25
2022-10-12T17:01:13.732Z,23.07
2022-10-12T17:03:41.583Z,23.48
2022-10-12T17:06:10.639Z,23.27
2022-10-12T17:08:39.501Z,22.77
2022-10-12T17:11:13.646Z,24.48
2022-10-12T17:13:46.591Z,22.08
2022-10-12T17:16:37.452Z,22.92
2022-10-12T17:19:05.252Z,23.60
2022-10-12T17:21:32.958Z,23.58
2022-10-12T17:24:01.538Z,26.20
2022-10-12T17:26:29.337Z,27.23
2022-10-12T17:28:56.756Z,25.60
2022-10-12T17:31:24.231Z,26.27
2022-10-12T17:33:51.677Z,26.25
2022-10-12T17:36:19.014Z,26.30
2022-10-12T17:38:46.511Z,26.58
2022-10-12T17:41:13.856Z,26.40
2022-10-12T17:43:41.350Z,27.63
2022-10-12T17:46:08.635Z,26.95
2022-10-12T17:48:36.063Z,27.60
2022-10-12T17:51:09.787Z,27.63
2022-10-12T17:53:43.221Z,27.17
2022-10-12T17:56:14.431Z,27.00
2022-10-12T17:58:42.806Z,27.42
2022-10-12T18:01:16.449Z,28.52
2022-10-12T18:03:46.625Z,25.75
2022-10-12T18:06:18.777Z,25.27
2022-10-12T18:08:46.517Z,25.73
2022-10-12T18:11:15.499Z,24.80
2022-10-12T18:13:48.295Z,25.55
2022-10-12T18:16:19.239Z,25.77
2022-10-12T18:18:50.789Z,24.70
2022-10-12T18:21:20.966Z,26.08
2022-10-12T18:23:49.684Z,25.90
2022-10-12T18:26:22.124Z,25.60
2022-10-12T18:29:01.095Z,27.13
2022-10-12T18:31:30.609Z,28.38
2022-10-12T18:33:59.301Z,28.10
2022-10-12T18:36:27.787Z,29.05
2022-10-12T18:38:56.978Z,28.85
2022-10-12T18:41:27.002Z,29.77
2022-10-12T18:43:59.760Z,30.38
2022-10-12T18:46:32.361Z,32.38
2022-10-12T18:49:05.045Z,34.72
2022-10-12T18:51:42.415Z,33.50
2022-10-12T18:54:13.958Z,31.33
2022-10-12T18:56:41.953Z,31.27
2022-10-12T18:59:12.228Z,30.33
2022-10-12T19:01:39.696Z,29.77
2022-10-12T19:04:07.399Z,30.10
2022-10-12T19:06:38.601Z,32.08
2022-10-12T19:09:06.410Z,30.58
2022-10-12T19:11:34.858Z,30.40
2022-10-12T19:14:07.058Z,30.80
2022-10-12T19:16:35.955Z,31.70
2022-10-12T19:19:07.575Z,28.42
2022-10-12T19:21:35.637Z,28.70
2022-10-12T19:24:09.004Z,29.02
2022-10-12T19:26:37.281Z,27.85
2022-10-12T19:29:05.809Z,27.92
2022-10-12T19:34:08.115Z,27.10
2022-10-12T19:36:37.248Z,28.23
2022-10-12T19:39:10.096Z,28.40
2022-10-12T19:41:37.663Z,27.70
2022-10-12T19:44:06.935Z,27.85
2022-10-12T19:46:35.049Z,29.85
2022-10-12T19:49:02.662Z,27.20
2022-10-12T19:51:32.050Z,28.25
2022-10-12T19:54:04.193Z,27.52
2022-10-12T19:56:32.378Z,30.88
2022-10-12T19:59:06.584Z,29.27
2022-10-12T20:01:37.952Z,28.75
2022-10-12T20:04:10.229Z,28.20
2022-10-12T20:06:38.343Z,28.58
2022-10-12T20:09:07.574Z,29.70
2022-10-12T20:11:35.556Z,27.48
2022-10-12T20:14:03.410Z,29.92
2022-10-12T20:16:34.876Z,31.60
2022-10-12T20:19:04.759Z,31.13
2022-10-12T20:21:32.157Z,29.33
2022-10-12T20:23:59.602Z,28.60
2022-10-12T20:26:27.220Z,32.08
2022-10-12T20:28:55.632Z,29.83
2022-10-12T20:31:25.599Z,30.50
2022-10-12T20:33:56.292Z,30.55
2022-10-12T20:36:32.519Z,29.20
2022-10-12T20:39:00.680Z,29.60
2022-10-12T20:41:28.655Z,32.25
2022-10-12T20:43:58.297Z,30.83
2022-10-12T20:46:26.769Z,29.13
2022-10-12T20:51:36.128Z,30.10
2022-10-12T20:54:05.740Z,30.73
2022-10-12T20:56:34.017Z,30.40
2022-10-12T20:59:03.268Z,33.55
2022-10-12T21:01:31.691Z,32.75
2022-10-12T21:03:59.057Z,30.90
2022-10-12T21:06:26.928Z,31.23
2022-10-12T21:08:57.400Z,31.13
